createdAt,value
2018-02-12T00:01:14.941Z,15.30
2018-02-12T00:03:43.192Z,15.37
2018-02-12T00:06:11.437Z,14.17
2018-02-12T00:08:39.608Z,15.80
2018-02-12T00:11:07.864Z,16.23
2018-02-12T00:13:36.113Z,16.67
2018-02-12T00:16:05.136Z,16.10
2018-02-12T00:18:33.397Z,16.63
2018-02-12T00:21:01.617Z,15.67
2018-02-12T00:23:29.861Z,14.57
2018-02-12T00:25:59.320Z,14.97
2018-02-12T00:28:27.535Z,16.63
2018-02-12T00:30:55.784Z,17.80
2018-02-12T00:33:24.784Z,16.87
2018-02-12T00:35:53.775Z,16.20
2018-02-12T00:38:22.799Z,15.97
2018-02-12T00:40:51.056Z,14.77
2018-02-12T00:43:19.259Z,15.63
2018-02-12T00:45:47.453Z,14.63
2018-02-12T00:48:15.835Z,14.97
2018-02-12T00:50:44.043Z,16.17
2018-02-12T00:53:13.137Z,16.47
2018-02-12T00:55:42.138Z,15.80
2018-02-12T00:58:11.129Z,14.73
2018-02-12T01:00:40.115Z,16.57
2018-02-12T01:03:09.255Z,14.43
2018-02-12T01:05:37.471Z,15.10
2018-02-12T01:08:05.672Z,16.57
2018-02-12T01:10:34.696Z,16.63
2018-02-12T01:13:02.972Z,15.50
2018-02-12T01:15:31.217Z,15.07
2018-02-12T01:18:00.300Z,16.73
2018-02-12T01:20:29.287Z,15.67
2018-02-12T01:22:57.600Z,16.13
2018-02-12T01:25:25.922Z,14.50
2018-02-12T01:27:54.147Z,16.07
2018-02-12T01:30:22.346Z,15.73
2018-02-12T01:32:50.566Z,14.87
2018-02-12T01:35:18.756Z,15.07
2018-02-12T01:37:47.730Z,15.77
2018-02-12T01:40:15.960Z,15.90
2018-02-12T01:42:44.280Z,16.47
2018-02-12T01:45:12.511Z,14.37
2018-02-12T01:47:40.736Z,14.47
2018-02-12T01:50:18.567Z,15.53
2018-02-12T01:52:47.040Z,15.23
2018-02-12T01:55:16.145Z,14.90
2018-02-12T01:57:44.379Z,16.03
2018-02-12T02:00:12.616Z,15.23
2018-02-12T02:02:40.815Z,14.60
2018-02-12T02:05:09.076Z,15.97
2018-02-12T02:07:38.075Z,14.57
2018-02-12T02:10:06.316Z,14.83
2018-02-12T02:12:34.505Z,13.00
2018-02-12T02:15:02.826Z,14.57
2018-02-12T02:17:31.080Z,14.63
2018-02-12T02:19:59.300Z,13.97
2018-02-12T02:22:28.294Z,14.20
2018-02-12T02:24:57.325Z,13.87
2018-02-12T02:27:25.511Z,12.77
2018-02-12T02:29:53.734Z,14.87
2018-02-12T02:32:23.075Z,13.97
2018-02-12T02:34:51.280Z,13.97
2018-02-12T02:37:19.768Z,14.67
2018-02-12T02:39:47.974Z,14.13
2018-02-12T02:42:16.972Z,15.07
2018-02-12T02:44:45.344Z,13.37
2018-02-12T02:47:14.316Z,15.37
2018-02-12T02:49:42.622Z,15.10
2018-02-12T02:52:11.710Z,14.03
2018-02-12T02:54:40.712Z,14.33
2018-02-12T02:57:08.937Z,14.57
2018-02-12T02:59:37.199Z,14.97
2018-02-12T03:02:05.416Z,14.10
2018-02-12T03:04:33.621Z,13.17
2018-02-12T03:07:01.941Z,14.77
2018-02-12T03:09:30.176Z,12.83
2018-02-12T03:11:58.405Z,13.07
2018-02-12T03:14:26.625Z,12.87
2018-02-12T03:16:54.858Z,12.13
2018-02-12T03:19:23.052Z,12.23
2018-02-12T03:21:52.076Z,12.83
2018-02-12T03:24:20.792Z,11.60
2018-02-12T03:26:49.738Z,10.23
2018-02-12T03:29:18.858Z,10.77
2018-02-12T03:31:47.719Z,10.83
2018-02-12T03:34:16.793Z,11.60
2018-02-12T03:36:45.055Z,10.80
2018-02-12T03:39:13.544Z,10.60
2018-02-12T03:41:41.819Z,11.03
2018-02-12T03:44:10.119Z,10.10
2018-02-12T03:46:38.383Z,10.93
2018-02-12T03:49:06.592Z,10.50
2018-02-12T03:51:34.815Z,9.87
2018-02-12T03:54:03.011Z,10.17
2018-02-12T03:56:32.060Z,10.70
2018-02-12T03:59:00.297Z,12.07
2018-02-12T04:01:29.645Z,11.13
2018-02-12T04:03:57.941Z,10.53
2018-02-12T04:06:26.252Z,11.00
2018-02-12T04:08:55.386Z,10.57
2018-02-12T04:11:23.800Z,10.80
2018-02-12T04:13:52.072Z,10.67
2018-02-12T04:16:20.765Z,11.50
2018-02-12T04:18:48.930Z,10.87
2018-02-12T04:21:17.151Z,11.03
2018-02-12T04:23:45.348Z,10.73
2018-02-12T04:26:13.639Z,10.97
2018-02-12T04:28:43.089Z,10.33
2018-02-12T04:31:12.166Z,11.33
2018-02-12T04:33:40.416Z,11.67
2018-02-12T04:36:08.673Z,11.37
2018-02-12T04:38:36.860Z,10.03
2018-02-12T04:41:05.203Z,10.97
2018-02-12T04:43:33.456Z,10.87
2018-02-12T04:46:01.762Z,10.90
2018-02-12T04:48:30.083Z,10.67
2018-02-12T04:51:00.725Z,11.33
2018-02-12T04:53:28.928Z,10.53
2018-02-12T04:55:57.877Z,10.97
2018-02-12T04:58:26.306Z,10.80
2018-02-12T05:00:56.140Z,10.00
2018-02-12T05:03:24.571Z,10.70
2018-02-12T05:05:52.872Z,10.37
2018-02-12T05:08:21.919Z,10.73
2018-02-12T05:10:50.112Z,9.87
2018-02-12T05:13:18.451Z,11.40
2018-02-12T05:15:46.643Z,10.17
2018-02-12T05:18:14.847Z,10.50
2018-02-12T05:20:43.102Z,10.80
2018-02-12T05:23:11.501Z,11.33
2018-02-12T05:25:40.061Z,11.03
2018-02-12T05:28:08.331Z,10.17
2018-02-12T05:30:36.528Z,10.77
2018-02-12T05:33:04.875Z,11.50
2018-02-12T05:35:33.265Z,12.00
2018-02-12T05:38:01.478Z,12.27
2018-02-12T05:40:29.682Z,11.07
2018-02-12T05:42:57.908Z,10.87
2018-02-12T05:45:26.144Z,9.87
2018-02-12T05:47:54.841Z,10.07
2018-02-12T05:50:23.088Z,11.27
2018-02-12T05:52:51.296Z,11.60
2018-02-12T05:55:19.489Z,10.60
2018-02-12T05:57:47.753Z,12.37
2018-02-12T06:00:16.012Z,11.00
2018-02-12T06:02:44.208Z,11.77
2018-02-12T06:05:12.473Z,11.83
2018-02-12T06:07:40.677Z,11.80
2018-02-12T06:10:08.885Z,11.60
2018-02-12T06:12:37.129Z,10.47
2018-02-12T06:15:05.335Z,10.43
2018-02-12T06:17:33.597Z,11.33
2018-02-12T06:20:02.666Z,10.80
2018-02-12T06:22:30.921Z,11.50
2018-02-12T06:24:59.167Z,11.50
2018-02-12T06:27:27.406Z,10.60
2018-02-12T06:29:55.709Z,10.60
2018-02-12T06:32:23.929Z,10.53
2018-02-12T06:34:52.245Z,11.07
2018-02-12T06:37:20.537Z,10.07
2018-02-12T06:39:49.528Z,10.77
2018-02-12T06:42:18.745Z,11.20
2018-02-12T06:44:47.052Z,10.67
2018-02-12T06:47:15.252Z,10.67
2018-02-12T06:49:43.582Z,11.03
2018-02-12T06:52:11.785Z,11.23
2018-02-12T06:54:39.985Z,11.50
2018-02-12T06:57:09.028Z,11.20
2018-02-12T06:59:37.320Z,10.97
2018-02-12T07:02:05.528Z,11.17
2018-02-12T07:04:33.837Z,10.70
2018-02-12T07:07:02.183Z,10.83
2018-02-12T07:09:30.414Z,11.77
2018-02-12T07:11:58.691Z,11.43
2018-02-12T07:14:26.968Z,11.13
2018-02-12T07:16:56.581Z,11.77
2018-02-12T07:19:24.838Z,11.30
2018-02-12T07:21:53.784Z,10.90
2018-02-12T07:24:21.997Z,12.47
2018-02-12T07:26:50.296Z,12.17
2018-02-12T07:29:18.580Z,10.77
2018-02-12T07:31:47.532Z,11.40
2018-02-12T07:34:16.025Z,12.00
2018-02-12T07:36:44.729Z,11.27
2018-02-12T07:39:13.098Z,11.33
2018-02-12T07:41:41.395Z,11.90
2018-02-12T07:44:09.588Z,11.00
2018-02-12T07:46:37.816Z,10.50
2018-02-12T07:49:06.096Z,11.57
2018-02-12T07:51:34.339Z,11.40
2018-02-12T07:54:02.589Z,10.90
2018-02-12T07:56:30.768Z,11.30
2018-02-12T07:58:58.982Z,10.40
2018-02-12T08:01:28.316Z,10.43
2018-02-12T08:03:56.577Z,9.97
2018-02-12T08:06:24.876Z,10.47
2018-02-12T08:08:53.092Z,11.50
2018-02-12T08:11:21.404Z,10.73
2018-02-12T08:13:50.361Z,9.90
2018-02-12T08:16:18.616Z,10.23
2018-02-12T08:18:48.062Z,10.43
2018-02-12T08:21:17.044Z,10.63
2018-02-12T08:23:45.284Z,10.13
2018-02-12T08:26:13.549Z,10.70
2018-02-12T08:28:41.715Z,10.43
2018-02-12T08:31:09.928Z,10.40
2018-02-12T08:33:40.588Z,10.40
2018-02-12T08:36:09.648Z,10.70
2018-02-12T08:38:37.871Z,10.20
2018-02-12T08:41:06.860Z,10.13
2018-02-12T08:43:35.831Z,10.37
2018-02-12T08:46:04.103Z,9.47
2018-02-12T08:48:32.364Z,9.93
2018-02-12T08:51:00.610Z,9.53
2018-02-12T08:53:28.833Z,10.17
2018-02-12T08:55:57.216Z,9.80
2018-02-12T08:58:25.412Z,9.90
2018-02-12T09:00:54.371Z,9.80
2018-02-12T09:03:22.655Z,10.03
2018-02-12T09:05:50.888Z,10.03
2018-02-12T09:08:19.112Z,9.80
2018-02-12T09:10:47.380Z,9.97
2018-02-12T09:13:15.654Z,9.80
2018-02-12T09:15:43.911Z,9.73
2018-02-12T09:18:12.220Z,9.20
2018-02-12T09:20:40.404Z,9.30
2018-02-12T09:23:09.396Z,9.20
2018-02-12T09:25:38.394Z,9.37
2018-02-12T09:28:07.410Z,9.17
2018-02-12T09:30:35.612Z,9.50
2018-02-12T09:33:03.817Z,9.33
2018-02-12T09:35:32.509Z,9.67
2018-02-12T09:38:00.824Z,9.57
2018-02-12T09:40:29.393Z,9.67
2018-02-12T09:42:58.700Z,8.87
2018-02-12T09:45:26.907Z,9.70
2018-02-12T09:47:55.214Z,9.23
2018-02-12T09:50:23.401Z,9.20
2018-02-12T09:52:51.610Z,10.10
2018-02-12T09:55:20.776Z,10.20
2018-02-12T09:57:49.745Z,9.70
2018-02-12T10:00:18.152Z,10.50
2018-02-12T10:02:47.193Z,9.80
2018-02-12T10:05:15.417Z,9.77
2018-02-12T10:07:44.504Z,10.23
2018-02-12T10:10:12.808Z,8.63
2018-02-12T10:12:41.791Z,10.10
2018-02-12T10:15:10.028Z,9.27
2018-02-12T10:17:38.269Z,10.10
2018-02-12T10:20:06.472Z,9.10
2018-02-12T10:22:34.712Z,9.67
2018-02-12T10:25:03.743Z,10.27
2018-02-12T10:27:31.964Z,9.97
2018-02-12T10:30:00.161Z,9.53
2018-02-12T10:32:29.216Z,9.57
2018-02-12T10:34:57.473Z,9.97
2018-02-12T10:37:25.756Z,9.60
2018-02-12T10:39:54.056Z,9.83
2018-02-12T10:42:22.272Z,10.10
2018-02-12T10:44:50.460Z,10.33
2018-02-12T10:47:18.844Z,10.20
2018-02-12T10:49:47.116Z,10.03
2018-02-12T10:52:15.341Z,10.30
2018-02-12T10:54:43.552Z,9.83
2018-02-12T10:57:11.761Z,10.13
2018-02-12T10:59:39.960Z,10.33
2018-02-12T11:02:08.261Z,10.43
2018-02-12T11:04:37.216Z,9.50
2018-02-12T11:07:05.412Z,10.53
2018-02-12T11:09:34.456Z,10.00
2018-02-12T11:12:02.683Z,10.33
2018-02-12T11:14:30.884Z,10.20
2018-02-12T11:16:59.140Z,10.03
2018-02-12T11:19:28.106Z,10.20
2018-02-12T11:21:56.299Z,9.50
2018-02-12T11:24:24.587Z,9.67
2018-02-12T11:26:53.579Z,9.77
2018-02-12T11:29:22.662Z,10.60
2018-02-12T11:31:50.902Z,10.00
2018-02-12T11:34:19.151Z,9.33
2018-02-12T11:36:47.348Z,10.37
2018-02-12T11:39:15.677Z,10.17
2018-02-12T11:41:43.884Z,9.77
2018-02-12T11:44:12.098Z,10.57
2018-02-12T11:46:40.336Z,9.40
2018-02-12T11:49:08.561Z,9.67
2018-02-12T11:51:36.766Z,9.93
2018-02-12T11:54:04.980Z,9.40
2018-02-12T11:56:33.225Z,9.70
2018-02-12T11:59:01.440Z,10.30
2018-02-12T12:01:29.764Z,10.50
2018-02-12T12:03:57.972Z,10.60
2018-02-12T12:06:26.235Z,11.00
2018-02-12T12:08:55.226Z,10.23
2018-02-12T12:11:23.453Z,10.00
2018-02-12T12:13:51.708Z,10.50
2018-02-12T12:16:19.985Z,10.70
2018-02-12T12:18:48.190Z,9.63
2018-02-12T12:21:16.417Z,10.50
2018-02-12T12:23:44.728Z,10.17
2018-02-12T12:26:13.064Z,9.70
2018-02-12T12:28:41.308Z,10.07
2018-02-12T12:31:10.286Z,10.40
2018-02-12T12:33:38.499Z,9.13
2018-02-12T12:36:06.684Z,8.47
2018-02-12T12:38:35.580Z,8.40
2018-02-12T12:41:04.065Z,7.70
2018-02-12T12:43:32.351Z,6.90
2018-02-12T12:46:00.736Z,6.20
2018-02-12T12:48:28.932Z,6.03
2018-02-12T12:50:57.172Z,5.97
2018-02-12T12:53:25.419Z,6.20
2018-02-12T12:55:54.428Z,6.83
2018-02-12T12:58:22.616Z,6.80
2018-02-12T13:00:50.875Z,8.00
2018-02-12T13:03:20.022Z,7.80
2018-02-12T13:05:48.200Z,7.90
2018-02-12T13:08:16.432Z,8.00
2018-02-12T13:10:45.376Z,7.90
2018-02-12T13:13:13.719Z,8.00
2018-02-12T13:15:42.015Z,8.00
2018-02-12T13:18:11.832Z,7.20
2018-02-12T13:20:40.052Z,6.43
2018-02-12T13:23:08.376Z,6.47
2018-02-12T13:25:36.576Z,6.93
2018-02-12T13:28:04.795Z,6.93
2018-02-12T13:30:33.016Z,7.80
2018-02-12T13:33:01.200Z,7.70
2018-02-12T13:35:29.492Z,8.17
2018-02-12T13:37:58.544Z,8.10
2018-02-12T13:40:26.800Z,7.97
2018-02-12T13:42:54.993Z,7.93
2018-02-12T13:45:23.350Z,8.60
2018-02-12T13:47:51.591Z,8.83
2018-02-12T13:50:20.572Z,8.90
2018-02-12T13:52:48.846Z,9.10
2018-02-12T13:55:17.030Z,10.20
2018-02-12T13:57:46.003Z,9.60
2018-02-12T14:00:14.533Z,9.83
2018-02-12T14:02:42.792Z,9.57
2018-02-12T14:05:11.744Z,9.30
2018-02-12T14:07:39.988Z,9.77
2018-02-12T14:10:08.196Z,9.27
2018-02-12T14:12:36.400Z,9.90
2018-02-12T14:15:05.576Z,9.50
2018-02-12T14:17:33.890Z,9.83
2018-02-12T14:20:02.085Z,9.03
2018-02-12T14:22:30.417Z,9.93
2018-02-12T14:24:58.798Z,10.10
2018-02-12T14:27:27.151Z,10.70
2018-02-12T14:29:55.373Z,9.70
2018-02-12T14:32:24.434Z,9.47
2018-02-12T14:34:52.637Z,10.27
2018-02-12T14:37:23.776Z,9.70
2018-02-12T14:39:52.008Z,9.70
2018-02-12T14:42:20.196Z,8.87
2018-02-12T14:44:48.524Z,10.00
2018-02-12T14:47:16.724Z,9.30
2018-02-12T14:49:45.002Z,10.33
2018-02-12T14:52:13.285Z,10.17
2018-02-12T14:54:41.500Z,11.43
2018-02-12T14:57:10.546Z,11.30
2018-02-12T14:59:38.827Z,10.60
2018-02-12T15:02:07.024Z,11.27
2018-02-12T15:04:35.789Z,10.77
2018-02-12T15:07:04.097Z,11.67
2018-02-12T15:09:32.392Z,11.37
2018-02-12T15:12:01.468Z,12.20
2018-02-12T15:14:29.800Z,11.50
2018-02-12T15:16:58.024Z,12.40
2018-02-12T15:19:26.248Z,11.10
2018-02-12T15:21:54.456Z,12.00
2018-02-12T15:24:22.656Z,12.10
2018-02-12T15:26:51.620Z,12.43
2018-02-12T15:29:19.937Z,12.10
2018-02-12T15:31:48.191Z,11.80
2018-02-12T15:34:16.528Z,11.63
2018-02-12T15:36:44.840Z,11.23
2018-02-12T15:39:13.044Z,10.53
2018-02-12T15:41:42.029Z,10.57
2018-02-12T15:44:11.136Z,10.53
2018-02-12T15:46:40.155Z,10.27
2018-02-12T15:49:08.356Z,10.17
2018-02-12T15:51:36.577Z,10.50
2018-02-12T15:54:05.549Z,10.80
2018-02-12T15:56:33.933Z,10.67
2018-02-12T15:59:02.373Z,10.97
2018-02-12T16:01:30.604Z,11.60
2018-02-12T16:03:59.570Z,11.97
2018-02-12T16:06:27.957Z,11.00
2018-02-12T16:08:56.166Z,11.93
2018-02-12T16:11:24.417Z,11.83
2018-02-12T16:13:52.600Z,12.17
2018-02-12T16:16:21.564Z,13.53
2018-02-12T16:18:49.760Z,13.00
2018-02-12T16:21:19.974Z,13.07
2018-02-12T16:23:48.189Z,12.17
2018-02-12T16:26:16.528Z,12.43
2018-02-12T16:28:44.788Z,13.30
2018-02-12T16:31:13.021Z,12.43
2018-02-12T16:33:41.224Z,14.07
2018-02-12T16:36:09.470Z,13.53
2018-02-12T16:38:37.682Z,13.37
2018-02-12T16:41:05.920Z,13.23
2018-02-12T16:43:34.195Z,14.20
2018-02-12T16:46:02.407Z,14.07
2018-02-12T16:48:30.665Z,14.43
2018-02-12T16:50:58.923Z,14.27
2018-02-12T16:53:27.145Z,13.33
2018-02-12T16:55:55.352Z,15.03
2018-02-12T16:58:24.372Z,14.63
2018-02-12T17:00:52.580Z,13.63
2018-02-12T17:03:20.777Z,14.50
2018-02-12T17:05:49.844Z,14.30
2018-02-12T17:08:18.044Z,15.57
2018-02-12T17:10:47.013Z,14.00
2018-02-12T17:13:15.349Z,14.77
2018-02-12T17:15:43.563Z,14.50
2018-02-12T17:18:11.765Z,15.13
2018-02-12T17:20:40.760Z,15.73
2018-02-12T17:23:09.777Z,14.97
2018-02-12T17:25:38.086Z,14.97
2018-02-12T17:28:06.364Z,15.57
2018-02-12T17:30:34.720Z,15.10
2018-02-12T17:33:03.000Z,15.97
2018-02-12T17:35:31.587Z,15.90
2018-02-12T17:37:59.828Z,15.80
2018-02-12T17:40:28.796Z,16.63
2018-02-12T17:42:57.012Z,16.90
2018-02-12T17:45:25.234Z,15.07
2018-02-12T17:47:53.438Z,17.97
2018-02-12T17:50:21.668Z,18.03
2018-02-12T17:52:49.912Z,16.93
2018-02-12T17:55:18.884Z,19.03
2018-02-12T17:57:48.009Z,17.73
2018-02-12T18:00:16.477Z,18.67
2018-02-12T18:02:45.449Z,17.40
2018-02-12T18:05:13.996Z,17.83
2018-02-12T18:07:42.189Z,18.73
2018-02-12T18:10:10.428Z,16.80
2018-02-12T18:12:38.742Z,18.07
2018-02-12T18:15:07.459Z,18.93
2018-02-12T18:17:37.126Z,19.73
2018-02-12T18:20:05.396Z,17.33
2018-02-12T18:22:34.008Z,18.17
2018-02-12T18:25:02.201Z,20.23
2018-02-12T18:27:31.215Z,19.37
2018-02-12T18:29:59.457Z,18.13
2018-02-12T18:32:27.660Z,19.67
2018-02-12T18:34:57.160Z,18.40
2018-02-12T18:37:26.439Z,21.70
2018-02-12T18:39:55.616Z,17.27
2018-02-12T18:42:23.966Z,20.73
2018-02-12T18:44:52.429Z,18.20
2018-02-12T18:47:22.250Z,16.00
2018-02-12T18:49:50.527Z,16.27
2018-02-12T18:52:18.732Z,15.27
2018-02-12T18:54:47.880Z,15.00
2018-02-12T18:57:16.130Z,14.57
2018-02-12T18:59:44.379Z,16.17
2018-02-12T19:02:12.571Z,16.47
2018-02-12T19:04:40.850Z,16.67
2018-02-12T19:07:09.095Z,16.60
2018-02-12T19:09:37.604Z,15.23
2018-02-12T19:12:05.831Z,17.27
2018-02-12T19:14:34.211Z,17.53
2018-02-12T19:17:02.533Z,16.03
2018-02-12T19:19:30.892Z,16.73
2018-02-12T19:21:59.922Z,17.37
2018-02-12T19:24:28.147Z,16.97
2018-02-12T19:26:56.408Z,16.77
2018-02-12T19:29:24.629Z,16.30
2018-02-12T19:31:52.893Z,17.77
2018-02-12T19:34:21.214Z,15.33
2018-02-12T19:36:50.362Z,15.60
2018-02-12T19:39:18.571Z,16.17
2018-02-12T19:41:46.961Z,16.30
2018-02-12T19:44:15.163Z,16.03
2018-02-12T19:46:43.378Z,18.30
2018-02-12T19:49:11.604Z,16.60
2018-02-12T19:51:39.873Z,16.63
2018-02-12T19:54:08.073Z,17.30
2018-02-12T19:56:36.432Z,15.30
2018-02-12T19:59:04.658Z,16.93
2018-02-12T20:01:32.968Z,18.27
2018-02-12T20:04:02.000Z,15.93
2018-02-12T20:06:30.199Z,18.23
2018-02-12T20:08:58.391Z,19.00
2018-02-12T20:11:26.784Z,16.77
2018-02-12T20:13:55.760Z,17.77
2018-02-12T20:16:23.965Z,18.83
2018-02-12T20:18:53.012Z,17.30
2018-02-12T20:21:21.203Z,18.57
2018-02-12T20:23:49.408Z,17.97
2018-02-12T20:26:18.465Z,17.47
2018-02-12T20:28:46.670Z,18.73
2018-02-12T20:31:14.912Z,16.70
2018-02-12T20:33:43.264Z,17.27
2018-02-12T20:36:13.458Z,16.83
2018-02-12T20:38:42.014Z,16.70
2018-02-12T20:41:10.258Z,17.23
2018-02-12T20:43:38.466Z,17.97
2018-02-12T20:46:06.718Z,16.77
2018-02-12T20:48:34.992Z,16.77
2018-02-12T20:51:03.184Z,16.80
2018-02-12T20:53:31.413Z,16.50
2018-02-12T20:56:00.450Z,17.93
2018-02-12T20:58:28.726Z,16.97
2018-02-12T21:03:22.791Z,17.30
2018-02-12T21:05:50.990Z,17.53
2018-02-12T21:08:19.252Z,16.97
2018-02-12T21:10:47.527Z,18.13
2018-02-12T21:13:16.097Z,16.87
2018-02-12T21:15:44.435Z,17.90
2018-02-12T21:18:12.737Z,17.97
2018-02-12T21:20:41.750Z,17.47
2018-02-12T21:23:10.062Z,18.27
2018-02-12T21:25:38.402Z,17.73
2018-02-12T21:28:06.652Z,18.87
2018-02-12T21:30:35.621Z,17.30
2018-02-12T21:33:04.013Z,17.33
2018-02-12T21:35:33.002Z,18.63
2018-02-12T21:38:01.227Z,18.73
2018-02-12T21:40:29.518Z,16.87
2018-02-12T21:42:57.773Z,19.63
2018-02-12T21:45:25.991Z,18.50
2018-02-12T21:47:54.216Z,18.60
2018-02-12T21:50:22.428Z,19.73
2018-02-12T21:52:50.676Z,18.47
2018-02-12T21:55:19.707Z,17.90
2018-02-12T21:57:48.905Z,19.23
2018-02-12T22:00:17.245Z,19.93
2018-02-12T22:02:46.120Z,18.30
2018-02-12T22:05:16.512Z,19.70
2018-02-12T22:07:44.759Z,19.50
2018-02-12T22:10:13.004Z,18.23
2018-02-12T22:12:41.204Z,16.97
2018-02-12T22:15:09.449Z,17.50
2018-02-12T22:17:37.733Z,17.97
2018-02-12T22:20:05.927Z,18.13
2018-02-12T22:22:34.158Z,17.80
2018-02-12T22:25:02.528Z,17.40
2018-02-12T22:27:31.570Z,17.50
2018-02-12T22:30:00.573Z,18.40
2018-02-12T22:32:28.814Z,20.30
2018-02-12T22:34:57.812Z,19.17
2018-02-12T22:37:26.798Z,18.50
2018-02-12T22:39:55.821Z,17.93
2018-02-12T22:42:24.052Z,18.20
2018-02-12T22:44:53.013Z,18.60
2018-02-12T22:47:21.440Z,19.03
2018-02-12T22:49:49.721Z,17.77
2018-02-12T22:52:18.712Z,18.07
2018-02-12T22:54:47.816Z,17.93
2018-02-12T22:57:16.033Z,17.10
2018-02-12T22:59:44.349Z,17.27
2018-02-12T23:02:12.573Z,17.17
2018-02-12T23:04:40.816Z,17.63
2018-02-12T23:07:09.012Z,17.67
2018-02-12T23:09:37.245Z,16.37
2018-02-12T23:12:05.756Z,20.00
2018-02-12T23:14:34.710Z,16.93
2018-02-12T23:17:08.496Z,19.00
2018-02-12T23:19:36.709Z,19.80
2018-02-12T23:22:05.694Z,17.07
2018-02-12T23:24:33.919Z,16.50
2018-02-12T23:27:02.108Z,19.40
2018-02-12T23:29:30.380Z,18.67
2018-02-12T23:31:59.684Z,19.57
2018-02-12T23:34:27.889Z,18.60
2018-02-12T23:36:56.116Z,19.23
2018-02-12T23:39:24.388Z,19.00
2018-02-12T23:41:52.575Z,18.90
2018-02-12T23:44:20.848Z,19.20
2018-02-12T23:46:49.123Z,17.73
2018-02-12T23:49:17.368Z,19.27
2018-02-12T23:51:46.144Z,17.53
2018-02-12T23:54:25.336Z,18.27
2018-02-12T23:56:53.533Z,17.87
2018-02-12T23:59:21.738Z,19.10
